Time;durP1;ratioP1;P1;durP2;ratioP2;P2;SDS_P1;SDS_P2;PMS_P1;PMS_P2;Temp;Humidity;BMP_temperature;BMP_pressure;BME280_temperature;BME280_humidity;BME280_pressure;Samples;Min_cycle;Max_cycle;Signal;HPM_P1;HPM_P2
2023/11/04 00:00:54;;;;;;;2.93;2.10;;;6.90;99.90;;;;;;5035531;28;20471;-72
2023/11/04 00:03:20;;;;;;;4.20;2.30;;;6.90;99.90;;;;;;5036133;28;20332;-72
2023/11/04 00:05:46;;;;;;;2.77;2.00;;;6.90;99.90;;;;;;5035621;28;20203;-71
2023/11/04 00:08:13;;;;;;;6.70;2.43;;;6.90;99.90;;;;;;5018288;28;20165;-70
2023/11/04 00:10:39;;;;;;;2.80;1.97;;;7.00;99.90;;;;;;5036312;28;20465;-70
2023/11/04 00:13:06;;;;;;;3.80;2.17;;;6.90;99.90;;;;;;5035901;28;20925;-71
2023/11/04 00:15:32;;;;;;;3.43;1.83;;;6.90;99.90;;;;;;5035733;28;20408;-71
2023/11/04 00:17:58;;;;;;;2.40;2.00;;;6.90;99.90;;;;;;5035597;28;20410;-73
2023/11/04 00:20:26;;;;;;;3.60;2.13;;;6.90;99.90;;;;;;5035205;28;20488;-72
2023/11/04 00:22:53;;;;;;;2.60;2.03;;;6.90;99.90;;;;;;5035490;28;20204;-71
2023/11/04 00:25:18;;;;;;;2.30;1.90;;;7.00;99.90;;;;;;5035356;28;20462;-71
2023/11/04 00:27:44;;;;;;;4.57;2.50;;;7.00;99.90;;;;;;5035571;28;20408;-71
2023/11/04 00:30:10;;;;;;;2.93;1.63;;;6.90;99.90;;;;;;5035410;28;20201;-71
2023/11/04 00:32:36;;;;;;;2.20;1.80;;;6.90;99.90;;;;;;5035306;28;20231;-71
2023/11/04 00:35:03;;;;;;;2.40;2.00;;;6.90;99.90;;;;;;5035387;28;20429;-69
2023/11/04 00:37:30;;;;;;;3.70;2.67;;;6.90;99.90;;;;;;5035387;28;20165;-70
2023/11/04 00:39:56;;;;;;;2.80;2.20;;;6.80;99.90;;;;;;5017504;28;20499;-69
2023/11/04 00:42:22;;;;;;;4.33;2.60;;;6.80;99.90;;;;;;5035462;28;20422;-71
2023/11/04 00:44:48;;;;;;;3.27;1.83;;;6.90;99.90;;;;;;5035047;28;20198;-71
2023/11/04 00:47:13;;;;;;;2.77;2.13;;;6.90;99.90;;;;;;5035286;28;20170;-70
2023/11/04 00:49:39;;;;;;;2.00;1.80;;;7.00;99.90;;;;;;5035021;28;20179;-71
2023/11/04 00:52:05;;;;;;;2.53;2.03;;;7.10;99.90;;;;;;5035023;28;20181;-71
2023/11/04 00:54:30;;;;;;;2.43;1.97;;;7.10;99.90;;;;;;5035241;28;20460;-71
2023/11/04 00:56:57;;;;;;;3.60;2.10;;;7.10;99.90;;;;;;5034912;28;20255;-71
2023/11/04 00:59:22;;;;;;;2.23;1.70;;;7.10;99.90;;;;;;5034413;28;20483;-70
2023/11/04 01:01:48;;;;;;;2.30;1.70;;;7.10;99.90;;;;;;5034430;28;20504;-70
2023/11/04 01:04:14;;;;;;;2.90;2.30;;;7.00;99.90;;;;;;5034281;28;20187;-70
2023/11/04 01:06:39;;;;;;;3.03;2.50;;;7.00;99.90;;;;;;5034439;28;20453;-71
2023/11/04 01:09:05;;;;;;;2.70;2.00;;;7.00;99.90;;;;;;5034194;28;20514;-69
2023/11/04 01:11:31;;;;;;;3.40;2.30;;;7.10;99.90;;;;;;5034284;28;20249;-70
2023/11/04 01:13:57;;;;;;;3.60;2.57;;;7.10;99.90;;;;;;5034512;28;20193;-70
2023/11/04 01:16:23;;;;;;;2.53;2.10;;;7.10;99.90;;;;;;5034414;28;20268;-70
2023/11/04 01:18:49;;;;;;;6.93;5.67;;;7.00;99.90;;;;;;5034193;28;20782;-71
2023/11/04 01:21:16;;;;;;;5.07;3.90;;;7.10;99.90;;;;;;5034134;28;20179;-70
2023/11/04 01:23:42;;;;;;;5.20;2.80;;;7.10;99.90;;;;;;5034287;28;20245;-70
2023/11/04 01:26:07;;;;;;;2.70;2.20;;;7.10;99.90;;;;;;5034115;28;20483;-69
2023/11/04 01:28:33;;;;;;;3.33;1.93;;;7.20;99.90;;;;;;5033858;28;20247;-70
2023/11/04 01:30:58;;;;;;;2.07;1.87;;;7.20;99.90;;;;;;5033909;28;20176;-70
2023/11/04 01:33:26;;;;;;;3.40;2.40;;;7.10;99.90;;;;;;5033394;28;20732;-70
2023/11/04 01:35:52;;;;;;;2.83;2.63;;;7.10;99.90;;;;;;5033935;28;20164;-70
2023/11/04 01:38:18;;;;;;;2.37;2.17;;;7.10;99.90;;;;;;5033382;28;20522;-70
2023/11/04 01:40:51;;;;;;;2.60;2.30;;;7.10;99.90;;;;;;5033855;28;20174;-71
2023/11/04 01:43:27;;;;;;;2.37;2.10;;;7.10;99.90;;;;;;5033940;28;20200;-71
2023/11/04 01:46:12;;;;;;;3.63;2.57;;;7.00;99.90;;;;;;5034110;28;20459;-70
2023/11/04 01:48:41;;;;;;;2.30;2.10;;;7.00;99.90;;;;;;5034052;28;20403;-70
2023/11/04 01:51:07;;;;;;;2.27;2.07;;;6.90;99.90;;;;;;5033397;28;20404;-70
2023/11/04 01:53:34;;;;;;;3.90;2.97;;;6.80;99.90;;;;;;5033626;28;20427;-70
2023/11/04 01:56:01;;;;;;;3.07;2.33;;;6.80;99.90;;;;;;5034092;28;20412;-71
2023/11/04 01:58:32;;;;;;;3.10;2.27;;;6.90;99.90;;;;;;5033771;28;20966;-71
2023/11/04 02:01:00;;;;;;;2.53;2.33;;;6.80;99.90;;;;;;5033450;28;20821;-70
2023/11/04 02:03:26;;;;;;;2.30;2.10;;;6.80;99.90;;;;;;5033553;28;20975;-70
2023/11/04 02:05:52;;;;;;;2.10;1.90;;;6.80;99.90;;;;;;5033528;28;20553;-70
2023/11/04 02:08:19;;;;;;;2.83;2.50;;;6.70;99.90;;;;;;5033328;28;20443;-70
2023/11/04 02:10:45;;;;;;;4.13;2.90;;;6.70;99.90;;;;;;5033673;28;20167;-71
2023/11/04 02:13:10;;;;;;;3.30;2.23;;;6.70;99.90;;;;;;5033908;28;20754;-70
2023/11/04 02:15:36;;;;;;;3.63;2.13;;;6.60;99.90;;;;;;5033390;28;20201;-70
2023/11/04 02:18:03;;;;;;;2.63;2.17;;;6.70;99.90;;;;;;5032818;28;20164;-70
2023/11/04 02:20:30;;;;;;;2.83;2.27;;;6.70;99.90;;;;;;5035238;28;20204;-70
2023/11/04 02:22:56;;;;;;;5.90;2.43;;;6.70;99.90;;;;;;5033355;28;20534;-71
2023/11/04 02:25:22;;;;;;;2.60;2.33;;;6.70;99.90;;;;;;5072168;22;20545;-71
2023/11/04 02:27:47;;;;;;;2.50;2.07;;;6.60;99.90;;;;;;5053108;28;20445;-71
2023/11/04 02:30:13;;;;;;;2.43;2.20;;;6.60;99.90;;;;;;5052978;28;20222;-71
2023/11/04 02:32:38;;;;;;;2.47;2.20;;;6.60;99.90;;;;;;5053067;28;20171;-71
2023/11/04 02:35:05;;;;;;;2.83;2.63;;;6.60;99.90;;;;;;5052959;28;20545;-71
2023/11/04 02:37:31;;;;;;;2.43;2.23;;;6.60;99.90;;;;;;5053317;28;20170;-72
2023/11/04 02:39:57;;;;;;;1.90;1.80;;;6.70;99.90;;;;;;5052884;28;20414;-73
2023/11/04 02:42:23;;;;;;;3.53;2.40;;;6.70;99.90;;;;;;5052936;28;20397;-72
2023/11/04 02:44:48;;;;;;;3.23;2.00;;;6.60;99.90;;;;;;5052838;28;20215;-72
2023/11/04 02:47:14;;;;;;;2.73;2.53;;;6.60;99.90;;;;;;5035606;28;20484;-73
2023/11/04 02:49:40;;;;;;;3.10;2.13;;;6.60;99.90;;;;;;5052850;28;20203;-72
2023/11/04 02:52:06;;;;;;;2.60;2.23;;;6.50;99.90;;;;;;5053004;28;20235;-72
2023/11/04 02:54:31;;;;;;;2.50;2.07;;;6.50;99.90;;;;;;5053113;28;20657;-72
2023/11/04 02:56:57;;;;;;;1.80;1.63;;;6.50;99.90;;;;;;5053102;28;20404;-73
2023/11/04 02:59:22;;;;;;;2.27;2.07;;;6.50;99.90;;;;;;5052773;28;20182;-73
2023/11/04 03:01:48;;;;;;;3.43;2.73;;;6.50;99.90;;;;;;5052871;28;20164;-73
2023/11/04 03:04:13;;;;;;;2.80;1.80;;;6.60;99.90;;;;;;5052758;28;20642;-73
2023/11/04 03:06:39;;;;;;;1.90;1.70;;;6.70;99.90;;;;;;5052751;28;20199;-73
2023/11/04 03:09:06;;;;;;;2.93;1.93;;;6.70;99.90;;;;;;5034978;28;20264;-73
2023/11/04 03:11:31;;;;;;;1.80;1.70;;;6.70;99.90;;;;;;5052754;28;20161;-73
2023/11/04 03:13:57;;;;;;;2.37;2.00;;;6.70;99.90;;;;;;5052694;28;20425;-73
2023/11/04 03:16:22;;;;;;;2.43;1.70;;;6.70;99.90;;;;;;5052958;28;20184;-73
2023/11/04 03:18:48;;;;;;;2.43;1.57;;;6.60;99.90;;;;;;5053045;28;20181;-72
2023/11/04 03:21:15;;;;;;;2.50;1.33;;;6.60;99.90;;;;;;5052884;28;20175;-72
2023/11/04 03:23:41;;;;;;;1.70;1.60;;;6.60;99.90;;;;;;5053405;28;20168;-73
2023/11/04 03:26:08;;;;;;;6.10;2.13;;;6.70;99.90;;;;;;5053561;28;20622;-73
2023/11/04 03:28:36;;;;;;;2.07;1.80;;;6.70;99.90;;;;;;5054632;28;20489;-72
2023/11/04 03:31:05;;;;;;;3.10;1.50;;;6.70;99.90;;;;;;5054191;28;20198;-72
2023/11/04 03:33:32;;;;;;;3.50;2.20;;;6.70;99.90;;;;;;5053912;28;20403;-71
2023/11/04 03:35:57;;;;;;;1.90;1.60;;;6.60;99.90;;;;;;5054086;28;20413;-72
2023/11/04 03:38:23;;;;;;;1.70;1.50;;;6.50;99.90;;;;;;5054938;28;20410;-72
2023/11/04 03:40:48;;;;;;;2.10;1.17;;;6.50;99.90;;;;;;5052781;28;20207;-72
2023/11/04 03:43:14;;;;;;;1.37;1.27;;;6.60;99.90;;;;;;5051930;28;20172;-73
2023/11/04 03:45:40;;;;;;;1.30;1.20;;;6.50;99.90;;;;;;5052222;28;20194;-73
2023/11/04 03:48:05;;;;;;;2.80;1.90;;;6.50;99.90;;;;;;5052125;28;20259;-73
2023/11/04 03:50:31;;;;;;;1.93;1.63;;;6.50;99.90;;;;;;5052300;28;20172;-72
2023/11/04 03:52:56;;;;;;;2.07;1.30;;;6.40;99.90;;;;;;5052238;28;20645;-72
2023/11/04 03:55:22;;;;;;;1.87;1.47;;;6.40;99.90;;;;;;5052196;28;20187;-72
2023/11/04 03:57:48;;;;;;;1.90;1.53;;;6.30;99.90;;;;;;5052493;28;20210;-72
2023/11/04 04:00:14;;;;;;;2.53;1.30;;;6.20;99.90;;;;;;5052230;28;20304;-72
2023/11/04 04:02:40;;;;;;;1.60;1.30;;;6.20;99.90;;;;;;5054633;28;20434;-72
2023/11/04 04:05:06;;;;;;;3.60;1.60;;;6.20;99.90;;;;;;5037785;28;20495;-72
2023/11/04 04:07:33;;;;;;;2.00;1.80;;;6.30;99.90;;;;;;5056073;28;20911;-72
2023/11/04 04:09:59;;;;;;;3.13;1.60;;;6.20;99.90;;;;;;5055871;28;20397;-72
2023/11/04 04:12:24;;;;;;;1.47;1.37;;;6.10;99.90;;;;;;5055555;28;20795;-72
2023/11/04 04:14:50;;;;;;;2.57;1.70;;;6.10;99.90;;;;;;5055614;28;20611;-72
2023/11/04 04:17:15;;;;;;;2.77;2.27;;;6.00;99.90;;;;;;5055778;28;20209;-72
2023/11/04 04:19:41;;;;;;;2.17;1.77;;;5.90;99.90;;;;;;5055903;28;20683;-72
2023/11/04 04:22:07;;;;;;;2.27;1.80;;;6.00;99.90;;;;;;5037638;28;20589;-72
2023/11/04 04:24:33;;;;;;;2.33;1.97;;;5.90;99.90;;;;;;5055311;28;20205;-72
2023/11/04 04:26:58;;;;;;;2.70;1.70;;;5.90;99.90;;;;;;5055566;28;20406;-72
2023/11/04 04:29:24;;;;;;;8.43;2.00;;;5.90;99.90;;;;;;5055474;28;20166;-71
2023/11/04 04:31:52;;;;;;;2.67;1.87;;;5.90;99.90;;;;;;5037835;28;20190;-71
2023/11/04 04:34:18;;;;;;;2.50;2.07;;;5.90;99.90;;;;;;5055403;28;20187;-71
2023/11/04 04:36:45;;;;;;;2.90;2.10;;;5.80;99.90;;;;;;5055554;28;20406;-71
2023/11/04 04:39:11;;;;;;;2.40;2.20;;;5.90;99.90;;;;;;5055808;28;20443;-71
2023/11/04 04:41:37;;;;;;;2.37;2.17;;;5.90;99.90;;;;;;5055437;28;20412;-71
2023/11/04 04:44:03;;;;;;;2.40;2.17;;;5.80;99.90;;;;;;5055258;28;20515;-72
2023/11/04 04:46:34;;;;;;;4.87;2.63;;;5.70;99.90;;;;;;5055041;28;20245;-71
2023/11/04 04:49:00;;;;;;;3.13;2.50;;;5.80;99.90;;;;;;5055044;28;20151;-72
2023/11/04 04:51:25;;;;;;;3.70;3.30;;;5.80;99.90;;;;;;5055164;28;20402;-71
2023/11/04 04:53:51;;;;;;;3.47;2.03;;;5.80;99.90;;;;;;5054881;28;20195;-72
2023/11/04 04:56:16;;;;;;;2.60;2.37;;;5.80;99.90;;;;;;5054938;28;20237;-71
2023/11/04 04:58:42;;;;;;;3.87;2.37;;;5.90;99.90;;;;;;5055929;28;20219;-72
2023/11/04 05:01:20;;;;;;;2.63;2.43;;;6.00;99.90;;;;;;5036976;28;20168;-71
2023/11/04 05:03:46;;;;;;;2.60;2.30;;;6.00;99.90;;;;;;5055047;28;20266;-71
2023/11/04 05:06:12;;;;;;;3.00;2.70;;;6.00;99.90;;;;;;5054988;28;21079;-72
2023/11/04 05:08:38;;;;;;;3.20;2.90;;;5.90;99.90;;;;;;5054779;28;20198;-72
2023/11/04 05:11:04;;;;;;;2.30;2.10;;;5.90;99.90;;;;;;5036828;28;20171;-72
2023/11/04 05:13:30;;;;;;;2.50;2.30;;;5.90;99.90;;;;;;5053591;28;20810;-72
2023/11/04 05:15:56;;;;;;;2.73;2.53;;;5.90;99.90;;;;;;5054590;28;20547;-72
2023/11/04 05:18:21;;;;;;;2.77;2.57;;;6.00;99.90;;;;;;5054475;28;20178;-72
2023/11/04 05:20:47;;;;;;;5.30;2.60;;;6.00;99.90;;;;;;5054463;28;20409;-72
2023/11/04 05:23:13;;;;;;;2.57;2.37;;;6.00;99.90;;;;;;5054588;28;20167;-72
2023/11/04 05:25:39;;;;;;;4.30;2.10;;;6.00;99.90;;;;;;5036249;28;20810;-72
2023/11/04 05:28:05;;;;;;;2.50;2.30;;;6.00;99.90;;;;;;5054582;28;20249;-73
2023/11/04 05:30:31;;;;;;;4.03;2.93;;;6.00;99.90;;;;;;5036191;28;20496;-73
2023/11/04 05:32:58;;;;;;;2.53;2.00;;;6.00;99.90;;;;;;5054192;28;20493;-72
2023/11/04 05:35:24;;;;;;;2.90;2.17;;;5.90;99.90;;;;;;5053661;28;20190;-73
2023/11/04 05:37:50;;;;;;;2.57;2.27;;;6.00;99.90;;;;;;5053959;28;20412;-70
2023/11/04 05:40:15;;;;;;;3.30;3.00;;;5.90;99.90;;;;;;5036164;28;20179;-73
2023/11/04 05:42:41;;;;;;;2.80;2.57;;;5.90;99.90;;;;;;5036126;28;20424;-72
2023/11/04 05:45:07;;;;;;;3.93;3.00;;;5.90;99.90;;;;;;5053808;28;20257;-72
2023/11/04 05:47:33;;;;;;;5.03;2.80;;;5.90;99.90;;;;;;5053981;28;20190;-72
2023/11/04 05:50:00;;;;;;;2.60;2.40;;;5.90;99.90;;;;;;5053819;28;20412;-72
2023/11/04 05:52:25;;;;;;;3.13;2.30;;;6.00;99.90;;;;;;5054037;28;20263;-73
2023/11/04 05:54:51;;;;;;;5.60;4.70;;;6.00;99.90;;;;;;5053742;28;20875;-72
2023/11/04 05:57:16;;;;;;;3.07;2.87;;;5.90;99.90;;;;;;5053760;28;20640;-71
2023/11/04 05:59:45;;;;;;;2.70;2.50;;;5.80;99.90;;;;;;5053725;28;20171;-72
2023/11/04 06:02:13;;;;;;;2.87;2.63;;;5.90;99.90;;;;;;5053676;28;20172;-73
2023/11/04 06:04:39;;;;;;;4.80;3.70;;;5.90;99.90;;;;;;5053425;28;20478;-72
2023/11/04 06:07:05;;;;;;;3.83;2.80;;;5.80;99.90;;;;;;5035695;28;20819;-71
2023/11/04 06:09:31;;;;;;;3.47;2.90;;;5.90;99.90;;;;;;5053383;28;20468;-73
2023/11/04 06:12:00;;;;;;;3.40;3.07;;;5.90;99.90;;;;;;5053533;28;20649;-73
2023/11/04 06:14:29;;;;;;;4.03;2.93;;;6.00;99.90;;;;;;5035470;28;20452;-73
2023/11/04 06:16:55;;;;;;;4.93;3.40;;;6.00;99.90;;;;;;5053402;28;20407;-73
2023/11/04 06:19:21;;;;;;;3.73;3.20;;;6.10;99.90;;;;;;5053582;28;20822;-71
2023/11/04 06:21:47;;;;;;;4.00;3.60;;;6.10;99.90;;;;;;5053246;28;20899;-72
2023/11/04 06:24:13;;;;;;;3.13;2.93;;;6.10;99.90;;;;;;5034849;28;20457;-72
2023/11/04 06:26:38;;;;;;;5.60;3.67;;;6.20;99.90;;;;;;5053192;28;20290;-72
2023/11/04 06:29:04;;;;;;;3.23;2.93;;;6.10;99.90;;;;;;5053136;28;20175;-72
2023/11/04 06:31:30;;;;;;;2.10;1.90;;;6.10;99.90;;;;;;5053209;28;20641;-73
2023/11/04 06:33:56;;;;;;;2.40;2.20;;;6.10;99.90;;;;;;5053125;28;20479;-73
2023/11/04 06:36:22;;;;;;;3.90;3.07;;;6.20;99.90;;;;;;5053099;28;20489;-73
2023/11/04 06:38:47;;;;;;;3.97;2.27;;;6.40;99.90;;;;;;5052986;28;20902;-72
2023/11/04 06:41:16;;;;;;;2.03;1.87;;;6.10;99.90;;;;;;5035080;28;20179;-72
2023/11/04 06:43:48;;;;;;;2.40;2.20;;;6.10;99.90;;;;;;5053242;28;20577;-72
2023/11/04 06:46:14;;;;;;;2.27;2.07;;;6.10;99.90;;;;;;5053187;28;20481;-72
2023/11/04 06:48:40;;;;;;;2.37;2.17;;;6.10;99.90;;;;;;5053140;28;20847;-72
2023/11/04 06:51:06;;;;;;;1.93;1.70;;;6.10;99.90;;;;;;5053600;28;20180;-71
2023/11/04 06:53:32;;;;;;;2.50;2.30;;;6.10;99.90;;;;;;5052906;28;20175;-72
2023/11/04 06:55:59;;;;;;;2.90;2.20;;;6.10;99.90;;;;;;5053208;28;20174;-72
2023/11/04 06:58:28;;;;;;;2.40;2.20;;;6.10;99.90;;;;;;5052996;28;20917;-73
2023/11/04 07:00:54;;;;;;;2.27;2.07;;;6.20;99.90;;;;;;5034882;28;20463;-73
2023/11/04 07:03:20;;;;;;;2.47;1.87;;;6.20;99.90;;;;;;5035051;28;20411;-72
2023/11/04 07:05:45;;;;;;;1.70;1.60;;;6.20;99.90;;;;;;5034744;28;20281;-73
2023/11/04 07:08:13;;;;;;;1.70;1.60;;;6.20;99.90;;;;;;5052695;28;20502;-72
2023/11/04 07:10:42;;;;;;;1.73;1.63;;;6.40;99.90;;;;;;5035423;28;20753;-72
2023/11/04 07:13:11;;;;;;;2.07;1.57;;;6.50;99.90;;;;;;5053614;28;20405;-73
2023/11/04 07:15:39;;;;;;;3.07;1.87;;;6.60;99.90;;;;;;5053226;28;20425;-73
2023/11/04 07:18:07;;;;;;;1.93;1.73;;;6.70;99.90;;;;;;5053465;28;20410;-73
2023/11/04 07:20:37;;;;;;;1.63;1.50;;;6.70;99.90;;;;;;5035817;28;20857;-73
2023/11/04 07:23:03;;;;;;;2.40;2.20;;;6.70;99.90;;;;;;5053576;28;20383;-73
2023/11/04 07:25:30;;;;;;;2.10;1.83;;;6.50;99.90;;;;;;5052459;28;21012;-73
2023/11/04 07:27:58;;;;;;;2.70;2.33;;;6.50;99.90;;;;;;5034751;28;20497;-72
2023/11/04 07:30:24;;;;;;;2.63;1.90;;;6.50;99.90;;;;;;5052702;28;20414;-73
2023/11/04 07:32:49;;;;;;;1.73;1.63;;;6.80;99.90;;;;;;5052667;28;20410;-72
2023/11/04 07:35:15;;;;;;;4.17;1.70;;;6.80;99.90;;;;;;5052397;28;20202;-72
2023/11/04 07:37:40;;;;;;;1.97;1.70;;;6.90;99.90;;;;;;5054407;28;20180;-72
2023/11/04 07:40:07;;;;;;;2.10;1.90;;;7.00;99.90;;;;;;5049006;28;20187;-72
2023/11/04 07:42:33;;;;;;;2.00;1.53;;;7.10;99.90;;;;;;5056356;28;20685;-73
2023/11/04 07:44:59;;;;;;;2.40;1.87;;;7.30;99.90;;;;;;5056365;28;20449;-73
2023/11/04 07:47:24;;;;;;;2.20;1.90;;;7.10;99.90;;;;;;5056271;28;20408;-73
2023/11/04 07:49:51;;;;;;;3.10;2.27;;;7.20;99.90;;;;;;5056803;28;20179;-73
2023/11/04 07:52:16;;;;;;;2.33;2.10;;;7.30;99.90;;;;;;5056763;28;20171;-73
2023/11/04 07:54:42;;;;;;;3.30;2.10;;;7.40;99.90;;;;;;5056170;28;20783;-73
2023/11/04 07:57:07;;;;;;;3.57;1.90;;;7.40;99.90;;;;;;5038255;28;20174;-73
2023/11/04 07:59:33;;;;;;;3.00;2.80;;;7.60;99.90;;;;;;5056203;28;20170;-73
2023/11/04 08:01:58;;;;;;;2.77;1.83;;;7.70;99.90;;;;;;5056119;28;20166;-72
2023/11/04 08:04:26;;;;;;;1.90;1.60;;;7.90;99.90;;;;;;5055913;28;20182;-72
2023/11/04 08:06:51;;;;;;;2.03;1.70;;;8.10;99.90;;;;;;5055770;28;20189;-72
2023/11/04 08:09:18;;;;;;;3.00;1.60;;;8.20;99.90;;;;;;5055842;28;20404;-72
2023/11/04 08:11:43;;;;;;;2.53;1.90;;;8.30;99.90;;;;;;5056067;28;20172;-73
2023/11/04 08:14:09;;;;;;;1.70;1.60;;;8.10;99.90;;;;;;5055822;28;20985;-73
2023/11/04 08:16:35;;;;;;;1.80;1.47;;;8.10;99.90;;;;;;5055783;28;20177;-74
2023/11/04 08:19:00;;;;;;;1.60;1.23;;;8.20;99.90;;;;;;5055172;28;20170;-72
2023/11/04 08:21:29;;;;;;;1.50;1.40;;;8.30;99.90;;;;;;5037783;28;20272;-73
2023/11/04 08:23:58;;;;;;;1.50;1.40;;;8.50;99.90;;;;;;5056057;28;20229;-73
2023/11/04 08:26:27;;;;;;;1.30;1.20;;;8.60;99.90;;;;;;5055905;28;20470;-73
2023/11/04 08:28:52;;;;;;;1.70;1.40;;;8.60;99.90;;;;;;5056488;28;20428;-74
2023/11/04 08:31:19;;;;;;;2.53;1.60;;;8.60;99.90;;;;;;5056007;28;20436;-72
2023/11/04 08:33:44;;;;;;;3.00;1.80;;;8.70;99.90;;;;;;5055502;28;20231;-73
2023/11/04 08:36:10;;;;;;;1.60;1.40;;;8.70;99.90;;;;;;5055872;28;20880;-73
2023/11/04 08:38:36;;;;;;;1.80;1.40;;;8.80;99.90;;;;;;5055604;28;20177;-73
2023/11/04 08:41:02;;;;;;;1.97;1.50;;;9.10;99.90;;;;;;5037691;28;20171;-73
2023/11/04 08:43:28;;;;;;;3.00;2.00;;;9.10;99.90;;;;;;5038356;28;20222;-73
2023/11/04 08:45:54;;;;;;;2.17;1.97;;;9.30;99.90;;;;;;5055679;28;20830;-74
2023/11/04 08:48:19;;;;;;;1.70;1.30;;;9.50;99.90;;;;;;5055521;28;20211;-73
2023/11/04 08:50:45;;;;;;;1.93;1.67;;;9.60;99.90;;;;;;5055152;28;20412;-74
2023/11/04 08:53:11;;;;;;;1.57;1.17;;;9.80;99.90;;;;;;5055084;28;20169;-73
2023/11/04 08:55:36;;;;;;;1.73;1.40;;;10.00;99.90;;;;;;5055104;28;20190;-73
2023/11/04 08:58:02;;;;;;;2.10;1.30;;;10.10;99.90;;;;;;5055149;28;20271;-74
2023/11/04 09:00:28;;;;;;;2.90;1.83;;;10.00;99.90;;;;;;5054733;28;20220;-73
2023/11/04 09:02:55;;;;;;;1.50;1.37;;;10.00;99.90;;;;;;5036845;28;20179;-73
2023/11/04 09:05:21;;;;;;;2.13;0.93;;;10.10;99.90;;;;;;5054559;28;20547;-73
2023/11/04 09:07:47;;;;;;;1.73;1.00;;;10.30;99.90;;;;;;5054721;28;20493;-74
2023/11/04 09:10:13;;;;;;;2.50;1.50;;;10.60;99.90;;;;;;5054726;28;20533;-73
2023/11/04 09:12:38;;;;;;;3.70;1.43;;;10.90;99.90;;;;;;5054739;28;20162;-74
2023/11/04 09:15:05;;;;;;;2.80;1.23;;;10.80;99.90;;;;;;5054530;28;20185;-73
2023/11/04 09:17:30;;;;;;;1.80;1.10;;;10.80;99.90;;;;;;5036545;28;20180;-74
2023/11/04 09:19:57;;;;;;;1.67;1.20;;;10.70;99.90;;;;;;5054670;28;20453;-74
2023/11/04 09:22:23;;;;;;;2.47;1.17;;;10.70;99.90;;;;;;5055217;28;20170;-73
2023/11/04 09:24:48;;;;;;;1.77;1.10;;;10.80;99.90;;;;;;5054695;28;20448;-74
2023/11/04 09:27:14;;;;;;;1.93;1.13;;;10.80;99.90;;;;;;5036466;28;20439;-74
2023/11/04 09:29:40;;;;;;;1.30;1.10;;;10.80;99.90;;;;;;5054188;28;20633;-74
2023/11/04 09:32:05;;;;;;;2.33;1.37;;;10.70;99.90;;;;;;5053981;28;20171;-73
2023/11/04 09:34:31;;;;;;;1.63;1.23;;;10.70;99.90;;;;;;5054037;28;20191;-73
2023/11/04 09:36:57;;;;;;;1.17;1.00;;;10.80;99.90;;;;;;5054404;28;20179;-73
2023/11/04 09:39:22;;;;;;;1.27;1.17;;;10.80;99.90;;;;;;5054135;28;20173;-73
2023/11/04 09:41:51;;;;;;;1.50;1.20;;;10.80;99.90;;;;;;5053496;28;20664;-74
2023/11/04 09:44:18;;;;;;;1.37;1.00;;;10.70;99.90;;;;;;5053893;28;20190;-73
2023/11/04 09:46:44;;;;;;;1.23;1.13;;;10.70;99.90;;;;;;5054149;28;20459;-72
2023/11/04 09:49:10;;;;;;;1.70;1.33;;;10.80;99.90;;;;;;5054017;28;20406;-73
2023/11/04 09:51:36;;;;;;;2.13;1.10;;;10.90;99.90;;;;;;5035905;28;20421;-73
2023/11/04 09:54:03;;;;;;;1.93;1.10;;;11.00;99.90;;;;;;5035736;28;20187;-72
2023/11/04 09:56:28;;;;;;;1.40;1.13;;;11.10;99.90;;;;;;5053624;28;20414;-73
2023/11/04 09:58:54;;;;;;;1.27;1.00;;;11.20;99.90;;;;;;5053234;28;20421;-74
2023/11/04 10:01:20;;;;;;;1.20;1.00;;;11.30;99.90;;;;;;5053436;28;20590;-73
2023/11/04 10:03:47;;;;;;;1.30;1.10;;;11.40;99.90;;;;;;5053533;28;20716;-74
2023/11/04 10:06:13;;;;;;;1.57;0.90;;;11.60;99.90;;;;;;5053764;28;20251;-73
2023/11/04 10:08:39;;;;;;;1.40;0.87;;;11.70;99.90;;;;;;5053561;28;20437;-74
2023/11/04 10:11:05;;;;;;;1.07;0.90;;;12.10;99.90;;;;;;5053503;28;20409;-74
2023/11/04 10:13:31;;;;;;;1.53;1.10;;;12.40;99.90;;;;;;5053379;28;20177;-74
2023/11/04 10:15:57;;;;;;;1.03;0.83;;;12.30;99.90;;;;;;5053292;28;20406;-74
2023/11/04 10:18:24;;;;;;;1.53;1.00;;;12.30;99.90;;;;;;5053398;28;20519;-74
2023/11/04 10:20:50;;;;;;;1.40;0.90;;;12.40;99.90;;;;;;5035319;28;20551;-73
2023/11/04 10:23:16;;;;;;;2.20;1.20;;;12.50;99.90;;;;;;5053757;28;20413;-74
2023/11/04 10:25:42;;;;;;;1.17;0.83;;;12.50;99.90;;;;;;5053014;28;21003;-73
2023/11/04 10:28:09;;;;;;;3.33;1.07;;;12.20;99.90;;;;;;5052804;28;20249;-74
2023/11/04 10:30:37;;;;;;;1.63;1.00;;;12.10;99.90;;;;;;5052939;28;20163;-74
2023/11/04 10:33:07;;;;;;;1.00;0.87;;;12.10;99.90;;;;;;5053113;28;20410;-74
2023/11/04 10:35:34;;;;;;;1.30;0.90;;;12.00;99.90;;;;;;5053067;28;20431;-74
2023/11/04 10:38:05;;;;;;;1.57;0.80;;;12.00;99.90;;;;;;5035187;28;21007;-74
2023/11/04 10:40:31;;;;;;;1.97;1.20;;;12.10;99.90;;;;;;5052862;28;20493;-74
2023/11/04 10:43:07;;;;;;;2.40;1.00;;;12.10;99.90;;;;;;5052926;28;20418;-74
2023/11/04 10:45:38;;;;;;;1.00;0.90;;;12.10;99.90;;;;;;5052867;28;20460;-74
2023/11/04 10:48:15;;;;;;;1.87;1.00;;;11.90;99.90;;;;;;5053409;28;20952;-73
2023/11/04 10:50:44;;;;;;;1.20;0.90;;;11.90;99.90;;;;;;5053731;28;20404;-74
2023/11/04 10:53:13;;;;;;;1.20;1.00;;;11.80;99.90;;;;;;5053733;28;20409;-73
2023/11/04 10:55:46;;;;;;;1.73;1.03;;;11.80;99.90;;;;;;5036036;28;20442;-75
2023/11/04 10:58:27;;;;;;;1.40;0.90;;;11.70;99.90;;;;;;5055099;28;20458;-73
2023/11/04 11:00:54;;;;;;;1.73;0.97;;;11.60;99.90;;;;;;5037357;28;20857;-73
2023/11/04 11:03:20;;;;;;;2.00;1.30;;;11.50;99.90;;;;;;5054047;28;20413;-73
2023/11/04 11:05:48;;;;;;;1.67;0.70;;;11.40;99.90;;;;;;5052473;28;20549;-73
2023/11/04 11:08:15;;;;;;;0.90;0.73;;;11.40;99.90;;;;;;5034001;28;20460;-73
2023/11/04 11:11:02;;;;;;;1.13;0.90;;;11.30;99.90;;;;;;5052578;28;20899;-73
2023/11/04 11:13:32;;;;;;;3.50;1.27;;;11.40;99.90;;;;;;5057029;28;20905;-73
2023/11/04 11:15:59;;;;;;;1.57;0.93;;;11.60;99.90;;;;;;5056907;28;20429;-73
2023/11/04 11:18:26;;;;;;;1.80;1.10;;;11.80;99.90;;;;;;5056698;28;20463;-73
2023/11/04 11:20:51;;;;;;;1.53;0.83;;;12.00;99.90;;;;;;5056668;28;20430;-74
2023/11/04 11:23:28;;;;;;;1.10;0.80;;;12.20;99.90;;;;;;5056525;28;20401;-74
2023/11/04 11:26:11;;;;;;;1.50;0.83;;;12.20;99.90;;;;;;5056577;28;20561;-74
2023/11/04 11:28:39;;;;;;;1.43;1.13;;;12.40;99.90;;;;;;5056449;28;20393;-73
2023/11/04 11:31:07;;;;;;;1.73;0.80;;;12.30;99.90;;;;;;5038608;28;20499;-73
2023/11/04 11:33:33;;;;;;;1.70;1.03;;;12.20;99.90;;;;;;5056016;28;20944;-74
2023/11/04 11:36:07;;;;;;;3.20;1.30;;;12.30;99.90;;;;;;5056646;28;20412;-73
2023/11/04 11:38:34;;;;;;;1.23;1.03;;;12.40;99.90;;;;;;5056482;28;20186;-73
2023/11/04 11:41:04;;;;;;;1.10;0.90;;;12.50;99.90;;;;;;5056475;28;20411;-73
2023/11/04 11:43:30;;;;;;;1.20;1.00;;;12.40;99.90;;;;;;5055572;28;20423;-73
2023/11/04 11:45:56;;;;;;;1.73;0.90;;;12.30;99.90;;;;;;5056241;28;20456;-73
2023/11/04 11:48:23;;;;;;;1.57;1.10;;;12.30;99.90;;;;;;5056174;28;20887;-73
2023/11/04 11:50:49;;;;;;;1.53;1.10;;;12.40;99.90;;;;;;5056087;28;20692;-73
2023/11/04 11:53:15;;;;;;;1.30;1.00;;;12.30;99.90;;;;;;5055949;28;20499;-73
2023/11/04 11:55:41;;;;;;;1.73;1.07;;;12.30;99.90;;;;;;5037483;28;20227;-73
2023/11/04 11:58:08;;;;;;;1.30;0.90;;;12.20;99.90;;;;;;5056011;28;20462;-72
2023/11/04 12:00:35;;;;;;;1.20;0.90;;;12.20;99.90;;;;;;5056218;28;20405;-74
2023/11/04 12:03:01;;;;;;;2.23;1.50;;;12.30;99.90;;;;;;5056087;28;20481;-73
2023/11/04 12:05:27;;;;;;;3.53;2.13;;;12.20;99.90;;;;;;5055758;28;20952;-73
2023/11/04 12:07:53;;;;;;;1.03;0.83;;;12.10;99.90;;;;;;5055848;28;20429;-73
2023/11/04 12:10:19;;;;;;;0.90;0.77;;;12.10;99.90;;;;;;5055445;28;20409;-73
2023/11/04 12:12:45;;;;;;;1.30;0.90;;;12.30;99.90;;;;;;5055632;28;20177;-73
2023/11/04 12:15:12;;;;;;;1.93;1.20;;;12.20;99.90;;;;;;5055806;28;20229;-74
2023/11/04 12:17:37;;;;;;;1.87;1.07;;;12.20;99.90;;;;;;5056389;28;20462;-74
2023/11/04 12:20:11;;;;;;;2.77;0.90;;;12.20;99.90;;;;;;5056196;28;20511;-74
2023/11/04 12:22:37;;;;;;;1.53;1.10;;;12.10;99.90;;;;;;5055395;28;20153;-73
2023/11/04 12:25:06;;;;;;;1.33;1.23;;;12.10;99.90;;;;;;5037346;28;20457;-74
2023/11/04 12:27:32;;;;;;;1.37;1.17;;;12.20;99.90;;;;;;5055439;28;20972;-74
2023/11/04 12:29:58;;;;;;;1.50;0.87;;;12.30;99.90;;;;;;5055244;28;20490;-74
2023/11/04 12:32:24;;;;;;;1.07;0.97;;;12.20;99.90;;;;;;5037356;28;20409;-74
2023/11/04 12:34:58;;;;;;;2.53;1.47;;;12.30;99.90;;;;;;5055340;28;20432;-74
2023/11/04 12:37:27;;;;;;;1.60;1.00;;;12.10;99.90;;;;;;5054588;28;20883;-74
2023/11/04 12:39:55;;;;;;;1.53;1.07;;;12.20;99.90;;;;;;5055216;28;20401;-73
2023/11/04 12:42:22;;;;;;;3.27;1.90;;;12.30;99.90;;;;;;5055045;28;20424;-73
2023/11/04 12:44:52;;;;;;;1.33;1.00;;;12.10;99.90;;;;;;5055067;28;20515;-74
2023/11/04 12:47:27;;;;;;;1.23;0.90;;;12.20;99.90;;;;;;5055027;28;20406;-73
2023/11/04 12:49:53;;;;;;;0.97;0.87;;;12.10;99.90;;;;;;5054846;28;20389;-73